Saturday, July 21, 2018, 3:35 PM EDT
Back to Local

KIWI, Wiscasset Municipal Airport

Location: Wiscasset, ME, United States Lat: 43.967
Local Time: 3:35 PM EDT (19:35 GMT) Lon: -69.717
Time Zone: US/Eastern Elev: 68 ft

Show me the last for .
Show Decoded

2018-07-21 14:53 METAR KIWI 211853Z AUTO VRB04KT 10SM CLR 24/11 A3017 RMK AO2 SLP216 T02440111 =
2018-07-21 13:53 METAR KIWI 211753Z AUTO 19004KT 10SM CLR 24/12 A3018 RMK AO2 SLP219 T02440117
                 10250 20161 58009 =
2018-07-21 12:53 METAR KIWI 211653Z AUTO 18005KT 10SM CLR 24/13 A3019 RMK AO2 SLP223 T02440128 =
2018-07-21 11:53 METAR KIWI 211553Z AUTO VRB03KT 10SM CLR 24/13 A3020 RMK AO2 SLP226 T02390133 =
2018-07-21 10:53 METAR KIWI 211453Z AUTO 10SM CLR 23/11 A3021 RMK AO2 SLP228 T02330106 55002 =
2018-07-21 09:53 METAR KIWI 211353Z AUTO 00000KT 10SM CLR 23/12 A3020 RMK AO2 SLP227 T02280122 =
2018-07-21 08:53 METAR KIWI 211253Z AUTO 00000KT 10SM CLR 20/16 A3021 RMK AO2 SLP228 T02000156 =
2018-07-21 07:53 METAR KIWI 211153Z AUTO 00000KT 10SM CLR 16/16 A3021 RMK AO2 SLP231 T01610161
                 10161 20117 51006 =
2018-07-21 07:42 METAR KIWI 211142Z AUTO 00000KT 9SM SCT001 15/15 A3021 RMK AO2 T01500150 =
2018-07-21 07:35 METAR KIWI 211135Z AUTO 00000KT 10SM BKN001 14/14 A3021 RMK AO2 T01440144 =
2018-07-21 07:15 METAR KIWI 211115Z AUTO 00000KT 2SM BR OVC001 14/14 A3021 RMK AO2 T01390139 =
2018-07-21 07:12 METAR KIWI 211112Z AUTO 00000KT 1 1/4SM BR OVC001 14/14 A3022 RMK AO2 T01390139
                 =
2018-07-21 07:04 METAR KIWI 211104Z AUTO 00000KT 1 3/4SM BR OVC001 13/13 A3022 RMK AO2 T01330133
                 =
2018-07-21 06:53 METAR KIWI 211053Z AUTO 00000KT 5SM BR BKN001 13/13 A3021 RMK AO2 SLP231
                 T01330133 =
2018-07-21 06:31 METAR KIWI 211031Z AUTO 00000KT 3SM BR BKN001 13/13 A3021 RMK AO2 T01280128 =
2018-07-21 06:26 METAR KIWI 211026Z AUTO 00000KT 1 1/2SM BR OVC001 12/12 A3021 RMK AO2 T01220122
                 =
2018-07-21 05:53 METAR KIWI 210953Z AUTO 00000KT M1/4SM FG VV001 12/12 A3020 RMK AO2 SLP228
                 T01170117 =
2018-07-21 04:53 METAR KIWI 210853Z AUTO 00000KT 3/4SM BR VV001 12/12 A3019 RMK AO2 SLP224
                 T01170117 57001 =
2018-07-21 04:13 METAR KIWI 210813Z AUTO 00000KT 1/2SM FG VV002 12/12 A3020 RMK AO2 T01220122 =
2018-07-21 03:53 METAR KIWI 210753Z AUTO 00000KT 1/2SM FG VV001 13/13 A3020 RMK AO2 SLP226
                 T01280128 =
2018-07-21 03:35 METAR KIWI 210735Z AUTO 00000KT 1/4SM FG VV001 13/13 A3019 RMK AO2 T01330133 =
2018-07-21 03:12 METAR KIWI 210712Z AUTO 00000KT 1/2SM FG VV002 13/13 A3019 RMK AO2 T01330133 =
2018-07-21 02:53 METAR KIWI 210653Z AUTO 00000KT 1/4SM FG VV001 13/13 A3019 RMK AO2 SLP224
                 T01330133 =
2018-07-21 02:36 METAR KIWI 210636Z AUTO 00000KT 1/4SM FG VV001 13/13 A3020 RMK AO2 T01280128 =
2018-07-21 02:16 METAR KIWI 210616Z AUTO 00000KT 1SM BR OVC001 13/13 A3020 RMK AO2 T01280128 =
2018-07-21 02:01 METAR KIWI 210601Z AUTO 00000KT 3/4SM BR OVC001 13/13 A3020 RMK AO2 T01280128 =
2018-07-21 01:58 METAR KIWI 210558Z AUTO 00000KT 1 1/2SM BR OVC001 13/13 A3020 RMK AO2 T01280128
                 =
2018-07-21 01:53 METAR KIWI 210553Z AUTO 00000KT 9SM OVC001 13/13 A3020 RMK AO2 SLP226 T01280128
                 10211 20128 55001 =
2018-07-21 01:29 METAR KIWI 210529Z AUTO 00000KT 5SM BR OVC001 13/13 A3020 RMK AO2 T01330133 =
2018-07-21 01:10 METAR KIWI 210510Z AUTO 00000KT 2SM BR OVC001 13/13 A3019 RMK AO2 T01330133 =
2018-07-21 01:02 METAR KIWI 210502Z AUTO 00000KT 1 1/4SM BR OVC001 14/14 A3019 RMK AO2 T01390139
                 =
2018-07-21 00:55 METAR KIWI 210455Z AUTO 00000KT 2SM BR OVC001 14/14 A3019 RMK AO2 T01390139 =
2018-07-21 00:53 METAR KIWI 210453Z AUTO 00000KT 1SM BR VV001 14/14 A3019 RMK AO2 SLP224
                 T01390139 402670106 =
2018-07-21 00:18 METAR KIWI 210418Z AUTO 00000KT 3/4SM BR OVC001 14/14 A3020 RMK AO2 VIS 1/4V5
                 T01440144 =
2018-07-21 00:16 METAR KIWI 210416Z AUTO 00000KT 1 1/2SM BR OVC001 14/14 A3020 RMK AO2 VIS 1/2V5
                 T01440144 =
2018-07-20 23:53 METAR KIWI 210353Z AUTO 00000KT 4SM BR OVC001 14/14 A3020 RMK AO2 SLP225
                 T01440144 =
2018-07-20 23:37 METAR KIWI 210337Z AUTO 00000KT 9SM BKN001 14/14 A3020 RMK AO2 T01440139 =
2018-07-20 23:29 METAR KIWI 210329Z AUTO 00000KT 10SM SCT001 14/14 A3020 RMK AO2 T01440144 TSNO =
2018-07-20 22:53 METAR KIWI 210253Z AUTO 00000KT 10SM BKN001 16/15 A3020 RMK AO2 SLP227 T01560150
                 51005 =
2018-07-20 22:44 METAR KIWI 210244Z AUTO 00000KT 10SM BKN001 15/15 A3020 RMK AO2 T01500150 =
2018-07-20 22:40 METAR KIWI 210240Z AUTO 00000KT 10SM SCT002 15/15 A3020 RMK AO2 T01500150 =
2018-07-20 21:53 METAR KIWI 210153Z AUTO 00000KT 10SM CLR 16/15 A3020 RMK AO2 SLP227 T01610150 =
2018-07-20 20:53 METAR KIWI 210053Z AUTO 00000KT 10SM CLR 19/16 A3020 RMK AO2 SLP227 T01890161 =
2018-07-20 19:53 METAR KIWI 202353Z AUTO 16004KT 10SM CLR 21/16 A3019 RMK AO2 SLP222 T02110156
                 10267 20211 55002 =
2018-07-20 18:53 METAR KIWI 202253Z AUTO 21006KT 10SM CLR 23/14 A3018 RMK AO2 SLP221 T02330139 =
2018-07-20 17:53 METAR KIWI 202153Z AUTO 19005KT 10SM CLR 23/17 A3018 RMK AO2 SLP221 T02330172 =
2018-07-20 16:53 METAR KIWI 202053Z AUTO 17008KT 10SM CLR 24/14 A3019 RMK AO2 SLP224 T02390139
                 55000 =
2018-07-20 15:53 METAR KIWI 201953Z AUTO 18008KT 10SM CLR 26/13 A3018 RMK AO2 SLP221 T02610133 =

Support USWX by starting your Amazon purchase here.